Time;durP1;ratioP1;P1;durP2;ratioP2;P2;SDS_P1;SDS_P2;PMS_P1;PMS_P2;Temp;Humidity;BMP_temperature;BMP_pressure;BME280_temperature;BME280_humidity;BME280_pressure;Samples;Min_cycle;Max_cycle;Signal;HPM_P1;HPM_P2
2023/11/08 00:00:13;;;;;;;38.55;24.95;;;384.10;2329.60;;;;;;5044588;28;20052;-77
2023/11/08 00:02:39;;;;;;;39.55;23.45;;;384.10;2329.60;;;;;;5061769;28;20023;-77
2023/11/08 00:05:06;;;;;;;43.15;24.92;;;384.20;2329.60;;;;;;5050652;28;20037;-77
2023/11/08 00:07:31;;;;;;;49.42;25.90;;;384.10;2329.60;;;;;;5051667;28;20040;-78
2023/11/08 00:09:57;;;;;;;45.25;23.83;;;384.10;2329.60;;;;;;5049736;28;20020;-77
2023/11/08 00:12:24;;;;;;;48.80;25.13;;;384.10;2329.60;;;;;;5051718;28;20394;-77
2023/11/08 00:14:53;;;;;;;45.92;25.85;;;384.10;2329.60;;;;;;5047352;28;20025;-77
2023/11/08 00:17:20;;;;;;;41.40;24.23;;;384.20;2329.60;;;;;;5047009;28;20036;-77
2023/11/08 00:19:45;;;;;;;37.13;24.73;;;384.20;2329.60;;;;;;5073422;28;20127;-77
2023/11/08 00:22:11;;;;;;;39.55;22.33;;;384.20;2329.60;;;;;;5049935;28;20112;-77
2023/11/08 00:24:37;;;;;;;47.33;22.80;;;384.20;2329.60;;;;;;5047220;28;20034;-77
2023/11/08 00:27:03;;;;;;;37.25;21.45;;;384.20;2329.60;;;;;;5041167;28;20478;-77
2023/11/08 00:29:28;;;;;;;37.60;20.35;;;384.20;2329.60;;;;;;5036483;28;20490;-78
2023/11/08 00:31:54;;;;;;;42.47;21.20;;;384.20;2329.60;;;;;;5047518;28;20072;-77
2023/11/08 00:34:20;;;;;;;30.50;19.83;;;384.20;2329.60;;;;;;5040439;28;20432;-77
2023/11/08 00:36:46;;;;;;;35.33;19.30;;;384.20;2329.60;;;;;;5060928;28;20020;-77
2023/11/08 00:39:15;;;;;;;36.83;18.90;;;384.10;2329.60;;;;;;5040753;28;20556;-77
2023/11/08 00:41:41;;;;;;;32.65;17.85;;;384.10;2329.60;;;;;;5052960;28;20017;-78
2023/11/08 00:44:09;;;;;;;36.00;18.88;;;384.10;2329.60;;;;;;5040800;28;20036;-77
2023/11/08 00:46:38;;;;;;;26.52;17.10;;;384.10;2329.60;;;;;;5053455;28;20131;-77
2023/11/08 00:49:04;;;;;;;28.10;15.38;;;384.10;2329.60;;;;;;5044367;28;20033;-77
2023/11/08 00:51:30;;;;;;;25.98;16.48;;;384.10;2329.60;;;;;;5052451;28;20383;-77
2023/11/08 00:53:56;;;;;;;26.70;14.90;;;384.00;2329.60;;;;;;5060764;28;20025;-78
2023/11/08 00:56:22;;;;;;;25.60;16.48;;;384.10;2329.60;;;;;;5044371;28;20439;-78
2023/11/08 00:58:48;;;;;;;24.52;13.88;;;384.10;2329.60;;;;;;5054049;28;20036;-77
2023/11/08 01:01:14;;;;;;;29.10;14.27;;;384.20;2329.60;;;;;;5051881;28;20033;-77
2023/11/08 01:03:40;;;;;;;26.63;14.75;;;384.10;2329.60;;;;;;5063470;28;20074;-78
2023/11/08 01:06:05;;;;;;;26.38;14.45;;;384.20;2329.60;;;;;;5039303;28;20057;-77
2023/11/08 01:08:31;;;;;;;21.85;13.30;;;384.20;2329.60;;;;;;5043721;28;20028;-78
2023/11/08 01:10:58;;;;;;;25.48;14.63;;;384.20;2329.60;;;;;;5058653;28;20459;-77
2023/11/08 01:13:24;;;;;;;24.00;13.20;;;384.10;2329.60;;;;;;5070430;28;20025;-78
2023/11/08 01:15:50;;;;;;;25.92;13.00;;;384.10;2329.60;;;;;;5047642;28;20020;-77
2023/11/08 01:18:16;;;;;;;17.55;11.45;;;384.00;2329.60;;;;;;5063385;28;20037;-77
2023/11/08 01:20:42;;;;;;;19.92;12.70;;;384.00;2329.60;;;;;;5045001;28;20386;-78
2023/11/08 01:23:09;;;;;;;20.88;12.98;;;359.30;2329.60;;;;;;5047090;28;20024;-78
2023/11/08 01:25:35;;;;;;;23.83;12.07;;;359.30;2329.60;;;;;;5044542;28;20025;-78
2023/11/08 01:28:01;;;;;;;17.80;10.55;;;359.30;2329.60;;;;;;5042544;28;20359;-78
2023/11/08 01:30:26;;;;;;;16.42;10.15;;;359.30;2329.60;;;;;;5067520;28;20029;-78
2023/11/08 01:32:52;;;;;;;16.83;9.05;;;359.20;2329.60;;;;;;5058520;28;20074;-77
2023/11/08 01:35:21;;;;;;;17.27;9.25;;;359.20;2329.60;;;;;;5043917;28;20544;-78
2023/11/08 01:37:46;;;;;;;13.48;8.30;;;359.20;2329.60;;;;;;5060710;28;20028;-77
2023/11/08 01:40:12;;;;;;;14.90;9.00;;;359.10;2329.60;;;;;;5041898;28;20044;-78
2023/11/08 01:42:38;;;;;;;17.02;7.72;;;359.20;2329.60;;;;;;5061833;28;20478;-78
2023/11/08 01:45:04;;;;;;;15.63;8.60;;;359.10;2329.60;;;;;;5050909;28;20036;-77
2023/11/08 01:47:34;;;;;;;16.35;7.45;;;359.00;2329.60;;;;;;5062558;28;20028;-77
2023/11/08 01:50:04;;;;;;;14.02;7.63;;;359.10;2329.60;;;;;;5058157;28;20045;-77
2023/11/08 01:52:30;;;;;;;14.63;8.23;;;359.10;2329.60;;;;;;5067149;28;20050;-78
2023/11/08 01:54:56;;;;;;;11.30;7.28;;;359.10;2329.60;;;;;;5069969;28;20020;-77
2023/11/08 01:57:23;;;;;;;19.42;9.20;;;359.20;2329.60;;;;;;5052442;28;20028;-77
2023/11/08 01:59:52;;;;;;;15.75;8.23;;;359.20;2329.60;;;;;;5055711;28;20091;-78
2023/11/08 02:02:21;;;;;;;14.55;7.25;;;359.20;2329.60;;;;;;5073893;28;20025;-78
2023/11/08 02:04:47;;;;;;;16.50;7.57;;;359.10;2329.60;;;;;;5073624;28;20091;-78
2023/11/08 02:07:13;;;;;;;10.30;6.75;;;359.10;2329.60;;;;;;5055990;28;20028;-78
2023/11/08 02:09:39;;;;;;;8.90;6.25;;;359.10;2329.60;;;;;;5055606;28;20031;-78
2023/11/08 02:12:05;;;;;;;13.90;6.90;;;359.10;2329.60;;;;;;5073822;28;20043;-77
2023/11/08 02:14:30;;;;;;;13.80;6.85;;;359.10;2329.60;;;;;;5073255;28;20466;-78
2023/11/08 02:16:56;;;;;;;14.88;6.90;;;359.10;2329.60;;;;;;5055690;28;20058;-78
2023/11/08 02:19:23;;;;;;;14.57;6.53;;;359.00;2329.60;;;;;;5054464;28;20109;-78
2023/11/08 02:21:49;;;;;;;13.15;6.18;;;359.00;2329.60;;;;;;5055231;28;20016;-78
2023/11/08 02:24:18;;;;;;;17.13;6.57;;;359.10;2329.60;;;;;;5073350;28;20115;-79
2023/11/08 02:26:48;;;;;;;13.63;6.63;;;359.10;2329.60;;;;;;5072800;28;20020;-79
2023/11/08 02:29:17;;;;;;;11.63;5.43;;;359.00;2329.60;;;;;;5073145;28;20031;-77
2023/11/08 02:31:44;;;;;;;11.45;5.03;;;359.00;2329.60;;;;;;5073283;28;20020;-76
2023/11/08 02:34:10;;;;;;;13.27;5.82;;;359.00;2329.60;;;;;;5073038;28;20392;-78
2023/11/08 02:36:36;;;;;;;8.00;5.22;;;359.00;2329.60;;;;;;5073135;28;20052;-78
2023/11/08 02:39:03;;;;;;;13.80;5.60;;;359.00;2329.60;;;;;;5072703;28;20075;-77
2023/11/08 02:41:31;;;;;;;8.07;5.47;;;359.00;2329.60;;;;;;5073053;28;20027;-76
2023/11/08 02:43:56;;;;;;;10.38;5.00;;;359.00;2329.60;;;;;;5054750;28;20539;-78
2023/11/08 02:46:22;;;;;;;19.05;5.80;;;359.00;2329.60;;;;;;5054642;28;20032;-77
2023/11/08 02:48:48;;;;;;;11.20;5.57;;;359.00;2329.60;;;;;;5054866;28;20024;-78
2023/11/08 02:51:14;;;;;;;11.38;5.93;;;359.00;2329.60;;;;;;5073075;28;20062;-76
2023/11/08 02:53:40;;;;;;;12.65;5.47;;;359.00;2329.60;;;;;;5054929;28;20417;-77
2023/11/08 02:56:06;;;;;;;12.63;5.22;;;359.00;2329.60;;;;;;5072860;28;20029;-77
2023/11/08 02:58:31;;;;;;;14.38;5.82;;;359.00;2329.60;;;;;;5054576;28;20095;-77
2023/11/08 03:00:57;;;;;;;10.00;5.85;;;359.00;2329.60;;;;;;5054878;28;20028;-77
2023/11/08 03:03:23;;;;;;;10.40;6.05;;;359.10;2329.60;;;;;;5054468;28;20486;-77
2023/11/08 03:05:48;;;;;;;12.38;5.70;;;359.10;2329.60;;;;;;5072919;28;20013;-77
2023/11/08 03:08:14;;;;;;;17.17;6.53;;;359.00;2329.60;;;;;;5054333;28;20033;-77
2023/11/08 03:10:41;;;;;;;11.32;6.72;;;359.00;2329.60;;;;;;5054756;28;20466;-77
2023/11/08 03:13:06;;;;;;;16.20;7.05;;;359.00;2329.60;;;;;;5054624;28;20060;-77
2023/11/08 03:15:32;;;;;;;14.05;7.35;;;359.00;2329.60;;;;;;5072810;28;20094;-77
2023/11/08 03:17:58;;;;;;;14.75;8.55;;;359.00;2329.60;;;;;;5072531;28;20025;-77
2023/11/08 03:20:26;;;;;;;12.98;9.07;;;359.00;2329.60;;;;;;5072647;28;20043;-77
2023/11/08 03:22:52;;;;;;;20.45;10.00;;;359.00;2329.60;;;;;;5072659;28;20109;-77
2023/11/08 03:25:17;;;;;;;20.02;10.15;;;359.00;2329.60;;;;;;5054541;28;20447;-78
2023/11/08 03:27:43;;;;;;;24.65;11.73;;;359.00;2329.60;;;;;;5054516;28;20028;-77
2023/11/08 03:30:12;;;;;;;18.98;11.25;;;359.00;2329.60;;;;;;5072756;28;20474;-76
2023/11/08 03:32:38;;;;;;;21.80;11.48;;;359.00;2329.60;;;;;;5054490;28;20509;-77
2023/11/08 03:35:05;;;;;;;16.83;11.43;;;359.00;2329.60;;;;;;5054649;28;20390;-77
2023/11/08 03:37:38;;;;;;;16.58;11.20;;;358.80;2329.60;;;;;;5054481;28;20017;-78
2023/11/08 03:40:05;;;;;;;19.27;12.02;;;359.00;2329.60;;;;;;5076021;28;20486;-76
2023/11/08 03:42:34;;;;;;;20.50;12.52;;;359.00;2329.60;;;;;;5041586;28;20025;-78
2023/11/08 03:45:01;;;;;;;22.50;13.45;;;359.00;2329.60;;;;;;5058119;28;20379;-77
2023/11/08 03:47:27;;;;;;;23.15;12.35;;;359.00;2329.60;;;;;;5076223;28;20103;-77
2023/11/08 03:49:54;;;;;;;21.13;13.35;;;359.00;2329.60;;;;;;5076165;28;20027;-77
2023/11/08 03:52:20;;;;;;;19.52;11.90;;;359.00;2329.60;;;;;;5057976;28;20099;-78
2023/11/08 03:54:46;;;;;;;18.60;12.93;;;359.00;2329.60;;;;;;5057486;28;20120;-77
2023/11/08 03:57:12;;;;;;;22.00;13.20;;;359.00;2329.60;;;;;;5057900;28;20024;-78
2023/11/08 03:59:38;;;;;;;26.00;13.30;;;359.00;2329.60;;;;;;5057982;28;20398;-77
2023/11/08 04:02:03;;;;;;;20.90;11.63;;;359.00;2329.60;;;;;;5075398;28;20033;-77
2023/11/08 04:04:29;;;;;;;18.23;12.10;;;359.00;2329.60;;;;;;5075479;28;20032;-77
2023/11/08 04:06:55;;;;;;;18.00;11.68;;;358.90;2329.60;;;;;;5057648;28;20031;-78
2023/11/08 04:09:20;;;;;;;21.10;11.52;;;359.00;2329.60;;;;;;5057520;28;20040;-77
2023/11/08 04:11:46;;;;;;;23.20;11.93;;;358.90;2329.60;;;;;;5057074;28;20481;-78
2023/11/08 04:14:12;;;;;;;24.20;12.85;;;358.90;2329.60;;;;;;5057534;28;20037;-78
2023/11/08 04:16:41;;;;;;;20.60;12.73;;;358.80;2329.60;;;;;;5075558;28;20020;-77
2023/11/08 04:19:07;;;;;;;17.52;10.93;;;358.80;2329.60;;;;;;5057327;28;20053;-76
2023/11/08 04:21:33;;;;;;;22.67;12.13;;;358.80;2329.60;;;;;;5075344;28;20490;-77
2023/11/08 04:23:59;;;;;;;17.48;10.20;;;358.80;2329.60;;;;;;5057859;28;20035;-80
2023/11/08 04:26:24;;;;;;;18.40;11.30;;;358.80;2329.60;;;;;;5057178;28;20016;-79
2023/11/08 04:28:51;;;;;;;23.73;12.07;;;358.80;2329.60;;;;;;5065498;28;20056;-78
2023/11/08 04:31:17;;;;;;;16.38;12.05;;;358.80;2329.60;;;;;;5075048;28;20028;-79
2023/11/08 04:33:43;;;;;;;16.40;11.27;;;358.80;2329.60;;;;;;5066278;28;20032;-79
2023/11/08 04:36:12;;;;;;;16.85;11.68;;;358.80;2329.60;;;;;;5057487;28;20032;-79
2023/11/08 04:38:39;;;;;;;20.08;10.57;;;358.80;2329.60;;;;;;5075541;28;20027;-79
2023/11/08 04:41:06;;;;;;;15.65;11.15;;;358.80;2329.60;;;;;;5075078;28;20067;-79
2023/11/08 04:43:35;;;;;;;20.25;10.55;;;358.80;2329.60;;;;;;5057360;28;20486;-80
2023/11/08 04:46:00;;;;;;;16.08;10.75;;;358.80;2329.60;;;;;;5075296;28;20024;-79
2023/11/08 04:48:26;;;;;;;22.58;10.88;;;358.80;1971.20;;;;;;5057395;28;20028;-79
2023/11/08 04:50:53;;;;;;;20.27;10.68;;;358.80;1945.60;;;;;;5074465;28;20012;-79
2023/11/08 04:53:18;;;;;;;19.05;11.07;;;358.80;2099.20;;;;;;5075178;28;20029;-79
2023/11/08 04:55:44;;;;;;;23.48;11.23;;;358.80;2329.60;;;;;;5074574;28;20074;-79
2023/11/08 04:58:10;;;;;;;22.30;11.98;;;358.80;2329.60;;;;;;5074935;28;20032;-79
2023/11/08 05:00:36;;;;;;;18.90;11.40;;;358.70;2329.60;;;;;;5074774;28;20033;-78
2023/11/08 05:03:01;;;;;;;17.95;11.07;;;358.70;2329.60;;;;;;5075047;28;20025;-79
2023/11/08 05:05:27;;;;;;;23.17;11.15;;;358.70;2329.60;;;;;;5057714;28;20035;-79
2023/11/08 05:07:53;;;;;;;19.00;10.77;;;358.70;2329.60;;;;;;5056837;28;20036;-80
2023/11/08 05:10:18;;;;;;;17.27;10.80;;;358.70;2329.60;;;;;;5056637;28;20021;-79
2023/11/08 05:12:45;;;;;;;21.50;11.23;;;358.70;2329.60;;;;;;5056937;28;20077;-78
2023/11/08 05:15:11;;;;;;;16.60;11.10;;;358.70;2329.60;;;;;;5056779;28;20466;-79
2023/11/08 05:17:38;;;;;;;22.05;11.80;;;358.60;2329.60;;;;;;5061118;28;20593;-78
2023/11/08 05:20:07;;;;;;;21.25;12.77;;;358.70;2329.60;;;;;;5049762;28;20045;-80
2023/11/08 05:22:34;;;;;;;18.58;10.85;;;358.60;2329.60;;;;;;5036638;28;20033;-78
2023/11/08 05:25:00;;;;;;;15.18;10.50;;;358.60;2329.60;;;;;;5049692;28;20439;-78
2023/11/08 05:27:26;;;;;;;21.10;11.93;;;358.60;2329.60;;;;;;5049254;28;20024;-78
2023/11/08 05:29:53;;;;;;;22.67;12.05;;;358.60;2329.60;;;;;;5074240;28;20060;-77
2023/11/08 05:32:21;;;;;;;16.52;11.13;;;358.60;2329.60;;;;;;5055643;28;20032;-77
2023/11/08 05:34:48;;;;;;;21.67;12.45;;;358.60;2329.60;;;;;;5073851;28;20130;-78
2023/11/08 05:37:14;;;;;;;17.83;11.80;;;358.60;2329.60;;;;;;5062889;28;20028;-77
2023/11/08 05:39:42;;;;;;;19.83;13.02;;;358.60;2329.60;;;;;;5043139;28;20041;-80
2023/11/08 05:42:08;;;;;;;20.42;12.68;;;358.60;2329.60;;;;;;5047735;28;20017;-78
2023/11/08 05:44:34;;;;;;;21.80;13.45;;;358.60;2329.60;;;;;;5040902;28;20036;-79
2023/11/08 05:46:59;;;;;;;23.08;13.30;;;358.60;2329.60;;;;;;5043716;28;20036;-79
2023/11/08 05:49:26;;;;;;;22.42;13.50;;;358.60;2329.60;;;;;;5065807;28;20021;-80
2023/11/08 05:51:52;;;;;;;23.90;14.10;;;358.60;2329.60;;;;;;5045457;28;20017;-77
2023/11/08 05:54:19;;;;;;;19.33;12.20;;;358.60;2329.60;;;;;;5043129;28;20032;-77
2023/11/08 05:56:45;;;;;;;18.67;13.13;;;358.60;2329.60;;;;;;5064496;28;20016;-80
2023/11/08 05:59:11;;;;;;;28.02;13.35;;;358.70;2329.60;;;;;;5057516;28;20033;-80
2023/11/08 06:01:36;;;;;;;20.67;12.63;;;358.70;2329.60;;;;;;5042495;28;20378;-79
2023/11/08 06:04:03;;;;;;;23.73;13.00;;;358.70;2329.60;;;;;;5066206;28;20032;-80
2023/11/08 06:06:30;;;;;;;23.48;13.40;;;358.60;2329.60;;;;;;5060298;28;20055;-79
2023/11/08 06:08:56;;;;;;;23.42;14.45;;;358.60;2329.60;;;;;;5050903;28;20115;-80
2023/11/08 06:11:22;;;;;;;25.83;13.68;;;358.70;2329.60;;;;;;5058356;28;20653;-82
2023/11/08 06:13:48;;;;;;;19.83;12.75;;;358.70;2329.60;;;;;;5042838;28;20123;-79
2023/11/08 06:16:13;;;;;;;22.65;14.77;;;358.70;2329.60;;;;;;5038703;28;20123;-79
2023/11/08 06:18:39;;;;;;;21.55;13.07;;;358.60;2329.60;;;;;;5050230;28;20155;-79
2023/11/08 06:21:05;;;;;;;22.67;12.95;;;358.60;2329.60;;;;;;5059949;28;20032;-80
2023/11/08 06:23:31;;;;;;;26.77;13.35;;;358.70;2329.60;;;;;;5056011;28;20032;-82
2023/11/08 06:25:57;;;;;;;24.35;13.68;;;358.70;2329.60;;;;;;5045436;28;20025;-79
2023/11/08 06:28:23;;;;;;;18.33;12.35;;;358.60;2329.60;;;;;;5042058;28;20082;-78
2023/11/08 06:30:48;;;;;;;25.52;13.90;;;358.70;2329.60;;;;;;5058113;28;20033;-80
2023/11/08 06:33:14;;;;;;;22.05;13.63;;;358.70;2329.60;;;;;;5043171;28;20356;-82
2023/11/08 06:35:43;;;;;;;26.60;13.23;;;358.70;2329.60;;;;;;5046419;28;20025;-79
2023/11/08 06:38:09;;;;;;;23.15;13.90;;;358.70;2329.60;;;;;;5073298;28;20488;-77
2023/11/08 06:40:36;;;;;;;22.23;13.68;;;358.70;2329.60;;;;;;5045700;28;20039;-76
2023/11/08 06:43:02;;;;;;;22.42;14.65;;;358.70;2329.60;;;;;;5069121;28;20028;-78
2023/11/08 06:45:28;;;;;;;18.10;13.18;;;358.70;2329.60;;;;;;5064597;28;20522;-81
2023/11/08 06:47:54;;;;;;;18.00;12.25;;;358.70;2329.60;;;;;;5054815;28;20020;-80
2023/11/08 06:50:19;;;;;;;18.42;11.45;;;358.70;2329.60;;;;;;5044316;28;20036;-81
2023/11/08 06:52:46;;;;;;;27.23;12.20;;;358.70;2329.60;;;;;;5043577;28;20043;-81
2023/11/08 06:55:11;;;;;;;20.17;11.90;;;358.70;2329.60;;;;;;5045830;28;20024;-81
2023/11/08 06:57:39;;;;;;;20.80;12.38;;;358.80;2329.60;;;;;;5050230;28;20025;-81
2023/11/08 07:00:07;;;;;;;19.15;14.05;;;358.80;2329.60;;;;;;5064120;28;20029;-81
2023/11/08 07:02:33;;;;;;;20.05;13.02;;;358.80;2329.60;;;;;;5044900;28;20478;-81
2023/11/08 07:04:59;;;;;;;16.42;10.50;;;358.80;2329.60;;;;;;5044769;28;20029;-81
2023/11/08 07:07:24;;;;;;;19.38;11.82;;;358.80;2329.60;;;;;;5045836;28;20024;-81
2023/11/08 07:09:50;;;;;;;16.40;9.93;;;358.70;2329.60;;;;;;5039579;28;20025;-80
2023/11/08 07:12:16;;;;;;;12.93;8.82;;;358.70;2329.60;;;;;;5051128;28;20028;-81
2023/11/08 07:14:42;;;;;;;16.33;10.23;;;358.60;2329.60;;;;;;5070419;28;20431;-81
2023/11/08 07:17:08;;;;;;;13.15;9.13;;;358.60;2329.60;;;;;;5044976;28;20501;-80
2023/11/08 07:19:34;;;;;;;15.63;9.77;;;358.60;2329.60;;;;;;5041039;28;20541;-80
2023/11/08 07:21:59;;;;;;;18.35;9.45;;;358.60;2329.60;;;;;;5041516;28;20049;-80
2023/11/08 07:24:25;;;;;;;17.73;10.65;;;358.60;2329.60;;;;;;5034014;28;20104;-80
2023/11/08 07:26:51;;;;;;;19.20;10.73;;;358.50;2329.60;;;;;;5025688;28;20029;-80
2023/11/08 07:29:17;;;;;;;16.15;10.95;;;358.50;2329.60;;;;;;5042182;28;20303;-79
2023/11/08 07:31:43;;;;;;;19.15;11.00;;;333.70;2329.60;;;;;;5037861;28;20055;-80
2023/11/08 07:34:09;;;;;;;15.57;10.10;;;333.70;1945.60;;;;;;5048036;28;20032;-80
2023/11/08 07:36:35;;;;;;;20.80;11.32;;;333.70;2329.60;;;;;;5037711;28;20018;-80
2023/11/08 07:39:02;;;;;;;18.42;10.40;;;333.60;2329.60;;;;;;5036009;28;20025;-80
2023/11/08 07:41:32;;;;;;;15.13;10.70;;;333.50;2329.60;;;;;;5048100;28;20108;-80
2023/11/08 07:43:58;;;;;;;19.45;10.30;;;333.60;2329.60;;;;;;5051303;28;20017;-80
2023/11/08 07:46:25;;;;;;;19.38;10.82;;;333.50;2329.60;;;;;;5034051;28;20025;-82
2023/11/08 07:48:55;;;;;;;16.30;10.48;;;333.50;2329.60;;;;;;5035139;28;20025;-80
2023/11/08 07:51:25;;;;;;;14.25;10.45;;;333.60;2329.60;;;;;;5029985;28;20040;-80
2023/11/08 07:53:51;;;;;;;23.50;14.90;;;333.60;2329.60;;;;;;5028702;28;20434;-80
2023/11/08 07:56:17;;;;;;;16.75;11.82;;;333.50;2329.60;;;;;;5025482;28;20025;-80
2023/11/08 09:17:04;;;;;;;10.98;6.28;;;333.30;2329.60;;;;;;5131353;27;20752;-81
2023/11/08 09:19:32;;;;;;;13.35;5.47;;;359.20;2329.60;;;;;;5117182;28;20050;-80
2023/11/08 09:21:59;;;;;;;5.63;3.65;;;359.20;2329.60;;;;;;5100844;28;20031;-81
2023/11/08 09:24:25;;;;;;;15.05;5.20;;;359.00;2329.60;;;;;;5117905;28;20016;-81
2023/11/08 09:26:51;;;;;;;8.60;5.30;;;359.20;2329.60;;;;;;5107024;28;20393;-80
2023/11/08 09:29:18;;;;;;;7.60;4.78;;;359.20;2329.60;;;;;;5119290;28;20118;-80
2023/11/08 09:31:47;;;;;;;8.43;4.20;;;359.30;2329.60;;;;;;5108194;28;20024;-80
2023/11/08 09:34:13;;;;;;;6.20;3.75;;;359.20;2329.60;;;;;;5102176;28;20488;-81
2023/11/08 09:36:39;;;;;;;5.70;3.75;;;359.10;2329.60;;;;;;5107721;28;20115;-81
2023/11/08 09:39:05;;;;;;;7.70;2.90;;;359.10;2329.60;;;;;;5114591;28;20107;-82
2023/11/08 09:41:31;;;;;;;6.70;3.00;;;359.20;2329.60;;;;;;5107838;28;20024;-81
2023/11/08 09:43:58;;;;;;;4.18;2.85;;;359.00;2329.60;;;;;;5110855;28;20039;-81
2023/11/08 09:46:26;;;;;;;4.13;2.70;;;359.00;2329.60;;;;;;5103578;28;20035;-81
2023/11/08 09:48:55;;;;;;;3.03;2.40;;;358.80;2329.60;;;;;;5110994;28;20032;-81
2023/11/08 09:51:21;;;;;;;5.82;3.53;;;358.80;2329.60;;;;;;5101924;28;20035;-81
2023/11/08 09:53:47;;;;;;;5.47;3.17;;;358.80;2329.60;;;;;;5112375;28;20032;-81
2023/11/08 09:56:13;;;;;;;4.60;2.70;;;359.00;2329.60;;;;;;5113517;28;20502;-81
2023/11/08 09:58:45;;;;;;;5.22;3.33;;;359.10;2329.60;;;;;;5103158;28;20020;-81
2023/11/08 10:01:17;;;;;;;3.80;2.55;;;359.00;2329.60;;;;;;5118376;28;20476;-82
2023/11/08 10:03:44;;;;;;;3.28;2.40;;;359.00;2329.60;;;;;;5109998;28;20023;-81
2023/11/08 10:06:11;;;;;;;4.63;2.90;;;359.00;2329.60;;;;;;5105396;28;20089;-81
2023/11/08 10:08:37;;;;;;;4.68;3.20;;;358.90;2329.60;;;;;;5105067;28;20401;-81
2023/11/08 10:11:05;;;;;;;6.97;2.88;;;358.90;2329.60;;;;;;5111698;28;20019;-81
2023/11/08 10:13:53;;;;;;;5.95;3.28;;;359.00;2329.60;;;;;;5104051;28;20044;-81
2023/11/08 10:16:20;;;;;;;4.78;2.83;;;359.00;2329.60;;;;;;5113584;28;20078;-81
2023/11/08 10:19:00;;;;;;;4.65;3.15;;;359.10;2329.60;;;;;;5100588;28;20491;-81
2023/11/08 10:21:27;;;;;;;4.18;2.70;;;359.10;2329.60;;;;;;5088452;28;20423;-81
2023/11/08 10:23:57;;;;;;;5.20;3.30;;;384.10;2329.60;;;;;;5091706;28;20043;-81
2023/11/08 10:26:31;;;;;;;5.38;3.83;;;384.30;2329.60;;;;;;5089427;28;20028;-81
2023/11/08 10:29:03;;;;;;;5.88;3.92;;;384.10;2329.60;;;;;;5092825;28;20036;-81
2023/11/08 10:31:35;;;;;;;5.43;3.63;;;384.40;2329.60;;;;;;5088786;28;20077;-81
2023/11/08 10:34:03;;;;;;;5.63;3.88;;;384.40;2329.60;;;;;;5091834;28;20028;-81
2023/11/08 10:36:30;;;;;;;5.40;3.22;;;384.50;2329.60;;;;;;5090226;28;20056;-81
2023/11/08 10:38:57;;;;;;;4.55;3.33;;;384.60;2329.60;;;;;;5102350;28;20028;-81
2023/11/08 10:41:23;;;;;;;7.10;3.28;;;384.60;2329.60;;;;;;5100428;28;20026;-81
2023/11/08 10:44:06;;;;;;;6.05;2.92;;;384.70;2329.60;;;;;;5094759;28;20036;-81
2023/11/08 10:46:32;;;;;;;7.07;3.83;;;384.90;2329.60;;;;;;5078238;28;20036;-81
2023/11/08 10:48:59;;;;;;;6.43;3.30;;;384.90;2329.60;;;;;;5094127;28;20105;-81
2023/11/08 10:51:25;;;;;;;4.63;3.10;;;384.90;2329.60;;;;;;5098144;28;20040;-81
2023/11/08 10:53:51;;;;;;;6.22;3.95;;;384.80;2329.60;;;;;;5100215;28;20035;-81
2023/11/08 10:56:20;;;;;;;8.52;3.08;;;384.70;2329.60;;;;;;5085994;28;20029;-80
2023/11/08 10:58:48;;;;;;;4.90;3.20;;;384.70;2329.60;;;;;;5082729;28;20031;-76
2023/11/08 11:01:14;;;;;;;5.68;2.65;;;384.90;2329.60;;;;;;5087684;28;20434;-77
2023/11/08 11:03:42;;;;;;;3.67;2.50;;;384.90;2329.60;;;;;;5101350;28;20031;-81
2023/11/08 11:06:08;;;;;;;4.28;2.72;;;409.60;2355.20;;;;;;5083539;28;20043;-82
2023/11/08 11:08:43;;;;;;;6.15;3.58;;;409.60;2355.20;;;;;;5080166;28;20020;-77
2023/11/08 11:11:09;;;;;;;6.90;3.42;;;384.90;2329.60;;;;;;5083185;28;20032;-81
2023/11/08 11:13:43;;;;;;;7.82;3.60;;;384.90;2329.60;;;;;;5081823;28;20016;-80
2023/11/08 11:16:27;;;;;;;8.43;3.58;;;384.70;2329.60;;;;;;5086534;28;20098;-78
2023/11/08 11:19:08;;;;;;;5.60;3.35;;;384.70;2329.60;;;;;;5096648;28;20032;-78
2023/11/08 11:21:43;;;;;;;3.88;2.60;;;384.70;2329.60;;;;;;5102862;28;20020;-77
2023/11/08 11:24:39;;;;;;;5.90;2.75;;;384.70;2329.60;;;;;;5093182;28;20100;-76
2023/11/08 11:27:06;;;;;;;5.40;3.00;;;384.70;2329.60;;;;;;5081412;28;20484;-79
2023/11/08 11:29:32;;;;;;;6.70;3.85;;;384.60;2329.60;;;;;;5104473;28;20028;-81
2023/11/08 11:32:06;;;;;;;4.43;2.88;;;384.60;2329.60;;;;;;5108772;28;20057;-80
2023/11/08 11:34:32;;;;;;;4.35;2.90;;;384.60;2329.60;;;;;;5105976;28;20043;-80
2023/11/08 11:37:01;;;;;;;7.70;4.43;;;384.90;2329.60;;;;;;5103997;28;20017;-79
2023/11/08 11:39:31;;;;;;;6.35;3.45;;;384.90;2329.60;;;;;;5093512;28;20535;-84
2023/11/08 11:42:23;;;;;;;10.68;2.88;;;409.70;2355.20;;;;;;5094912;28;20051;-79
2023/11/08 11:44:57;;;;;;;6.65;3.40;;;409.70;2355.20;;;;;;5092025;28;20036;-79
2023/11/08 11:47:30;;;;;;;4.60;2.83;;;409.70;2355.20;;;;;;5091411;28;20044;-78
2023/11/08 11:50:07;;;;;;;5.03;2.30;;;409.80;2355.20;;;;;;5089849;28;20036;-76
2023/11/08 11:52:34;;;;;;;5.57;3.17;;;410.00;2355.20;;;;;;5093291;28;20119;-79
2023/11/08 11:55:00;;;;;;;3.83;2.40;;;409.90;2355.20;;;;;;5097703;28;20031;-82
2023/11/08 11:57:29;;;;;;;5.47;2.80;;;409.80;2355.20;;;;;;5084661;28;20035;-80
2023/11/08 11:59:59;;;;;;;6.90;3.13;;;409.90;2355.20;;;;;;5087267;28;20062;-78
2023/11/08 12:02:29;;;;;;;5.60;2.40;;;410.20;2355.20;;;;;;5093245;28;20937;-84
2023/11/08 12:04:59;;;;;;;7.38;3.38;;;410.20;2355.20;;;;;;5093902;28;20029;-79
2023/11/08 12:07:25;;;;;;;5.65;2.47;;;409.90;2355.20;;;;;;5099107;28;20051;-80
2023/11/08 12:09:52;;;;;;;5.70;3.30;;;410.20;2355.20;;;;;;5091963;28;20123;-77
2023/11/08 12:12:31;;;;;;;8.68;3.25;;;410.30;2355.20;;;;;;5097117;28;20419;-78
2023/11/08 12:14:57;;;;;;;7.88;2.80;;;410.40;2355.20;;;;;;5084900;28;20064;-78
2023/11/08 12:17:24;;;;;;;3.95;2.20;;;410.00;2355.20;;;;;;5086600;28;20040;-78
2023/11/08 12:19:50;;;;;;;9.38;2.90;;;410.00;2355.20;;;;;;5082050;28;20032;-86
2023/11/08 12:22:16;;;;;;;5.00;3.35;;;410.00;2355.20;;;;;;5102552;28;20020;-80
2023/11/08 12:24:42;;;;;;;4.20;2.50;;;410.00;2355.20;;;;;;5096359;28;20412;-80
2023/11/08 12:27:08;;;;;;;5.20;2.90;;;410.40;2355.20;;;;;;5093086;28;20036;-80
2023/11/08 12:29:34;;;;;;;3.95;2.15;;;410.20;2355.20;;;;;;5094365;28;20021;-76
2023/11/08 12:32:03;;;;;;;7.18;2.63;;;410.00;2355.20;;;;;;5081131;28;20031;-78
2023/11/08 12:34:31;;;;;;;8.30;2.90;;;409.90;2355.20;;;;;;5087050;28;20114;-79
2023/11/08 12:36:57;;;;;;;4.90;2.17;;;384.90;2329.60;;;;;;5090687;28;20134;-78
2023/11/08 12:39:27;;;;;;;5.55;2.30;;;409.60;2355.20;;;;;;5087435;28;20057;-78
2023/11/08 12:41:55;;;;;;;4.55;2.15;;;409.70;2355.20;;;;;;5080987;28;20032;-78
2023/11/08 12:44:22;;;;;;;5.97;2.55;;;409.80;2355.20;;;;;;5085194;28;20028;-79
2023/11/08 12:46:56;;;;;;;5.72;2.60;;;409.70;2355.20;;;;;;5085655;28;20036;-82
2023/11/08 12:49:26;;;;;;;3.95;2.40;;;409.60;2355.20;;;;;;5081986;28;20024;-76
2023/11/08 12:51:53;;;;;;;6.43;4.13;;;384.90;2329.60;;;;;;5076432;28;20066;-77
2023/11/08 12:54:20;;;;;;;6.30;2.53;;;384.90;2329.60;;;;;;5071276;28;20024;-78
2023/11/08 12:56:47;;;;;;;18.58;8.23;;;384.90;2329.60;;;;;;5083426;28;20028;-78
2023/11/08 12:59:17;;;;;;;6.47;3.42;;;384.90;2329.60;;;;;;5070088;28;20034;-78
2023/11/08 13:01:50;;;;;;;3.65;2.38;;;384.90;2329.60;;;;;;5067411;28;20489;-77
2023/11/08 13:04:17;;;;;;;5.68;2.60;;;384.80;2329.60;;;;;;5089854;28;20032;-79
2023/11/08 13:06:44;;;;;;;5.93;2.78;;;384.80;2329.60;;;;;;5099613;28;20029;-78
2023/11/08 13:09:10;;;;;;;5.13;2.40;;;384.70;2329.60;;;;;;5069635;28;20055;-79
2023/11/08 13:11:35;;;;;;;3.25;1.85;;;384.70;2329.60;;;;;;5075375;28;20052;-78
2023/11/08 13:14:04;;;;;;;4.60;2.70;;;384.60;2329.60;;;;;;5069572;28;20481;-79
2023/11/08 13:16:30;;;;;;;4.65;2.30;;;384.70;2329.60;;;;;;5070751;28;20177;-79
2023/11/08 13:18:56;;;;;;;8.07;3.30;;;384.70;2329.60;;;;;;5084501;28;20055;-79
2023/11/08 13:21:22;;;;;;;7.47;3.25;;;384.70;2329.60;;;;;;5092184;28;20533;-80
2023/11/08 13:23:48;;;;;;;4.30;2.03;;;384.90;2329.60;;;;;;5070218;28;20154;-81